createdAt,value
2023-11-07T00:01:31.083Z,8.77
2023-11-07T00:03:59.678Z,8.80
2023-11-07T00:06:26.895Z,10.47
2023-11-07T00:08:54.401Z,4.63
2023-11-07T00:11:21.450Z,7.50
2023-11-07T00:13:51.639Z,10.00
2023-11-07T00:16:19.411Z,5.23
2023-11-07T00:18:48.248Z,5.77
2023-11-07T00:21:15.575Z,10.73
2023-11-07T00:23:42.668Z,7.93
2023-11-07T00:26:09.722Z,7.93
2023-11-07T00:28:40.743Z,6.73
2023-11-07T00:31:07.797Z,6.40
2023-11-07T00:33:35.195Z,5.60
2023-11-07T00:36:02.352Z,8.20
2023-11-07T00:38:30.460Z,5.37
2023-11-07T00:40:57.832Z,6.30
2023-11-07T00:43:24.956Z,7.30
2023-11-07T00:45:52.076Z,7.67
2023-11-07T00:48:19.711Z,4.73
2023-11-07T00:50:46.809Z,9.13
2023-11-07T00:53:14.310Z,5.10
2023-11-07T00:55:41.299Z,4.00
2023-11-07T00:58:08.347Z,6.87
2023-11-07T01:00:36.681Z,8.37
2023-11-07T01:03:04.039Z,5.57
2023-11-07T01:05:31.504Z,5.60
2023-11-07T01:07:58.647Z,7.40
2023-11-07T01:10:25.727Z,4.60
2023-11-07T01:12:54.264Z,6.33
2023-11-07T01:15:21.277Z,6.03
2023-11-07T01:17:48.593Z,9.17
2023-11-07T01:20:15.804Z,4.23
2023-11-07T01:22:42.867Z,5.17
2023-11-07T01:25:10.506Z,8.43
2023-11-07T01:27:37.902Z,4.37
2023-11-07T01:30:06.905Z,7.13
2023-11-07T01:32:34.135Z,6.43
2023-11-07T01:35:01.247Z,7.80
2023-11-07T01:37:28.564Z,10.97
2023-11-07T01:39:55.617Z,8.33
2023-11-07T01:42:22.545Z,6.73
2023-11-07T01:44:51.332Z,8.77
2023-11-07T01:47:20.074Z,9.33
2023-11-07T01:49:47.749Z,7.00
2023-11-07T01:52:17.881Z,6.33
2023-11-07T01:54:46.276Z,7.90
2023-11-07T01:57:14.463Z,6.27
2023-11-07T01:59:41.960Z,8.43
2023-11-07T02:02:19.065Z,12.50
2023-11-07T02:04:47.922Z,5.37
2023-11-07T02:07:15.637Z,5.63
2023-11-07T02:09:43.417Z,9.53
2023-11-07T02:12:10.823Z,8.00
2023-11-07T02:14:38.174Z,5.60
2023-11-07T02:17:05.880Z,15.27
2023-11-07T02:19:33.786Z,6.70
2023-11-07T02:22:01.809Z,7.67
2023-11-07T02:24:30.155Z,4.90
2023-11-07T02:27:00.307Z,7.43
2023-11-07T02:29:27.999Z,7.80
2023-11-07T02:31:55.077Z,5.23
2023-11-07T02:34:22.144Z,10.67
2023-11-07T02:36:49.149Z,6.50
2023-11-07T02:39:16.985Z,5.17
2023-11-07T02:41:45.991Z,6.87
2023-11-07T02:44:13.526Z,7.07
2023-11-07T02:46:41.220Z,13.90
2023-11-07T02:49:08.616Z,5.57
2023-11-07T02:51:35.765Z,5.83
2023-11-07T02:54:02.917Z,11.20
2023-11-07T02:56:30.526Z,7.00
2023-11-07T02:59:00.189Z,11.33
2023-11-07T03:01:27.723Z,6.43
2023-11-07T03:03:56.290Z,8.67
2023-11-07T03:06:23.979Z,11.13
2023-11-07T03:08:51.207Z,5.40
2023-11-07T03:11:18.370Z,5.73
2023-11-07T03:13:46.497Z,10.87
2023-11-07T03:16:13.595Z,3.70
2023-11-07T03:18:40.715Z,7.33
2023-11-07T03:21:11.467Z,5.37
2023-11-07T03:23:38.475Z,5.67
2023-11-07T03:26:06.061Z,7.93
2023-11-07T03:28:33.070Z,4.37
2023-11-07T03:31:00.121Z,7.60
2023-11-07T03:33:27.446Z,6.53
2023-11-07T03:35:54.581Z,12.23
2023-11-07T03:38:21.540Z,6.03
2023-11-07T03:40:48.461Z,7.20
2023-11-07T03:43:17.106Z,6.43
2023-11-07T03:45:44.471Z,6.07
2023-11-07T03:48:11.950Z,9.77
2023-11-07T03:50:39.175Z,7.30
2023-11-07T03:53:07.172Z,8.73
2023-11-07T03:55:34.674Z,9.27
2023-11-07T03:58:01.715Z,8.83
2023-11-07T04:00:28.702Z,11.50
2023-11-07T04:02:55.904Z,9.67
2023-11-07T04:05:24.382Z,7.70
2023-11-07T04:07:51.602Z,10.30
2023-11-07T04:10:18.721Z,7.70
2023-11-07T04:12:45.657Z,7.33
2023-11-07T04:15:13.690Z,6.43
2023-11-07T04:17:41.866Z,8.50
2023-11-07T04:20:12.680Z,8.57
2023-11-07T04:22:40.316Z,10.23
2023-11-07T04:25:08.045Z,11.63
2023-11-07T04:27:37.869Z,5.40
2023-11-07T04:30:09.256Z,4.10
2023-11-07T04:32:36.410Z,5.37
2023-11-07T04:35:06.775Z,5.13
2023-11-07T04:37:34.878Z,8.50
2023-11-07T04:40:03.635Z,12.37
2023-11-07T04:42:30.589Z,9.23
2023-11-07T04:44:57.828Z,7.17
2023-11-07T04:47:25.394Z,5.77
2023-11-07T04:49:52.513Z,4.97
2023-11-07T04:52:20.685Z,6.73
2023-11-07T04:54:48.224Z,7.83
2023-11-07T04:57:15.396Z,10.70
2023-11-07T04:59:42.786Z,7.70
2023-11-07T05:02:09.887Z,5.77
2023-11-07T05:04:37.061Z,6.30
2023-11-07T05:07:04.764Z,7.67
2023-11-07T05:09:31.738Z,8.00
2023-11-07T05:12:00.496Z,5.23
2023-11-07T05:14:29.019Z,8.07
2023-11-07T05:16:56.209Z,7.57
2023-11-07T05:19:23.278Z,5.97
2023-11-07T05:21:50.609Z,7.07
2023-11-07T05:24:17.830Z,8.43
2023-11-07T05:26:45.247Z,7.90
2023-11-07T05:29:16.199Z,10.00
2023-11-07T05:31:43.640Z,11.57
2023-11-07T05:34:10.879Z,13.70
2023-11-07T05:36:38.013Z,7.00
2023-11-07T05:39:05.312Z,6.67
2023-11-07T05:41:32.331Z,9.90
2023-11-07T05:43:59.827Z,7.60
2023-11-07T05:46:28.370Z,12.63
2023-11-07T05:48:55.739Z,10.63
2023-11-07T05:51:25.922Z,8.57
2023-11-07T05:53:52.911Z,7.70
2023-11-07T05:56:20.602Z,13.47
2023-11-07T05:58:49.640Z,19.03
2023-11-07T06:01:17.125Z,53.57
2023-11-07T06:03:44.425Z,82.83
2023-11-07T06:06:11.574Z,53.93
2023-11-07T06:08:38.763Z,44.13
2023-11-07T06:11:05.914Z,94.77
2023-11-07T06:13:32.911Z,82.77
2023-11-07T06:16:00.048Z,39.23
2023-11-07T06:18:27.092Z,20.43
2023-11-07T06:20:54.303Z,17.77
2023-11-07T06:23:21.556Z,24.30
2023-11-07T06:25:49.792Z,14.60
2023-11-07T06:28:17.156Z,16.20
2023-11-07T06:30:44.923Z,13.43
2023-11-07T06:33:12.394Z,88.33
2023-11-07T06:35:39.448Z,145.77
2023-11-07T06:38:06.416Z,18.43
2023-11-07T06:40:35.874Z,82.57
2023-11-07T06:43:04.902Z,25.90
2023-11-07T06:45:31.925Z,33.20
2023-11-07T06:47:59.032Z,37.63
2023-11-07T06:50:27.499Z,26.07
2023-11-07T06:52:55.311Z,25.67
2023-11-07T06:55:26.650Z,65.07
2023-11-07T06:57:56.000Z,55.70
2023-11-07T07:00:26.276Z,17.87
2023-11-07T07:02:57.583Z,20.57
2023-11-07T07:05:26.218Z,21.97
2023-11-07T07:07:53.278Z,23.23
2023-11-07T07:10:20.284Z,15.60
2023-11-07T07:12:47.717Z,16.47
2023-11-07T07:15:15.999Z,16.67
2023-11-07T07:17:43.154Z,16.63
2023-11-07T07:20:14.081Z,17.20
2023-11-07T07:22:45.691Z,17.60
2023-11-07T07:25:22.321Z,16.67
2023-11-07T07:27:49.983Z,18.53
2023-11-07T07:30:23.080Z,18.67
2023-11-07T07:32:52.015Z,19.57
2023-11-07T07:35:22.360Z,17.73
2023-11-07T07:37:54.465Z,17.60
2023-11-07T07:40:27.740Z,18.33
2023-11-07T07:43:09.982Z,18.57
2023-11-07T07:45:39.651Z,17.93
2023-11-07T07:48:08.454Z,15.73
2023-11-07T07:50:35.843Z,20.60
2023-11-07T07:53:07.649Z,17.17
2023-11-07T07:55:36.397Z,18.67
2023-11-07T07:58:07.987Z,18.30
2023-11-07T08:00:38.871Z,17.30
2023-11-07T08:03:10.154Z,17.40
2023-11-07T08:05:41.781Z,18.90
2023-11-07T08:08:10.447Z,21.27
2023-11-07T08:10:38.389Z,21.03
2023-11-07T08:13:09.165Z,18.33
2023-11-07T08:15:37.494Z,16.70
2023-11-07T08:18:08.091Z,20.10
2023-11-07T08:20:36.800Z,17.10
2023-11-07T08:23:06.518Z,17.80
2023-11-07T08:25:34.342Z,17.97
2023-11-07T08:28:01.871Z,17.27
2023-11-07T08:30:29.271Z,17.90
2023-11-07T08:32:56.723Z,20.03
2023-11-07T08:35:24.476Z,20.77
2023-11-07T08:37:52.544Z,16.63
2023-11-07T08:40:22.571Z,19.07
2023-11-07T08:42:52.681Z,16.73
2023-11-07T08:45:22.229Z,14.57
2023-11-07T08:47:55.536Z,18.60
2023-11-07T08:50:23.092Z,18.90
2023-11-07T08:52:53.759Z,12.13
2023-11-07T08:55:22.332Z,14.03
2023-11-07T08:57:51.010Z,16.37
2023-11-07T09:00:24.855Z,17.13
2023-11-07T09:02:54.121Z,13.90
2023-11-07T09:05:22.457Z,15.17
2023-11-07T09:07:49.574Z,12.23
2023-11-07T09:10:16.723Z,12.57
2023-11-07T09:12:43.923Z,17.87
2023-11-07T09:15:12.874Z,12.27
2023-11-07T09:17:41.230Z,13.97
2023-11-07T09:20:13.082Z,12.70
2023-11-07T09:22:41.412Z,14.13
2023-11-07T09:25:13.241Z,16.67
2023-11-07T09:27:41.088Z,12.03
2023-11-07T09:30:11.104Z,13.97
2023-11-07T09:32:40.326Z,11.00
2023-11-07T09:35:08.369Z,13.30
2023-11-07T09:37:41.549Z,10.20
2023-11-07T09:40:22.018Z,13.50
2023-11-07T09:42:52.192Z,13.10
2023-11-07T09:45:20.469Z,8.13
2023-11-07T09:47:49.809Z,11.33
2023-11-07T09:50:18.719Z,10.37
2023-11-07T09:52:47.627Z,10.30
2023-11-07T09:55:18.582Z,9.33
2023-11-07T09:58:01.880Z,13.57
2023-11-07T10:00:37.410Z,8.27
2023-11-07T10:03:04.888Z,9.47
2023-11-07T10:05:33.063Z,10.87
2023-11-07T10:08:00.892Z,9.17
2023-11-07T10:10:28.121Z,12.67
2023-11-07T10:13:06.865Z,9.97
2023-11-07T10:15:34.033Z,14.13
2023-11-07T10:18:05.826Z,7.33
2023-11-07T10:20:34.350Z,6.70
2023-11-07T10:23:02.397Z,7.93
2023-11-07T10:25:37.394Z,7.37
2023-11-07T10:28:09.929Z,7.13
2023-11-07T10:30:38.191Z,8.33
2023-11-07T10:33:05.628Z,7.03
2023-11-07T10:36:03.806Z,6.97
2023-11-07T10:38:32.472Z,5.40
2023-11-07T10:41:02.607Z,7.63
2023-11-07T10:43:40.539Z,7.07
2023-11-07T10:46:12.349Z,12.13
2023-11-07T10:48:41.590Z,5.47
2023-11-07T10:51:11.146Z,3.40
2023-11-07T10:53:39.529Z,5.47
2023-11-07T10:56:20.370Z,4.83
2023-11-07T10:59:03.922Z,4.90
2023-11-07T11:01:35.625Z,5.63
2023-11-07T11:04:04.163Z,6.67
2023-11-07T11:06:34.089Z,6.50
2023-11-07T11:09:08.541Z,3.73
2023-11-07T11:11:38.237Z,4.33
2023-11-07T11:14:09.558Z,4.10
2023-11-07T11:16:42.733Z,8.00
2023-11-07T11:19:30.057Z,4.63
2023-11-07T11:22:36.852Z,6.20
2023-11-07T11:25:24.697Z,5.13
2023-11-07T11:28:02.740Z,4.37
2023-11-07T11:30:33.177Z,7.97
2023-11-07T11:33:08.362Z,3.60
2023-11-07T11:35:39.676Z,4.37
2023-11-07T11:38:24.990Z,3.33
2023-11-07T11:41:04.034Z,3.43
2023-11-07T11:43:33.644Z,4.37
2023-11-07T11:46:15.410Z,3.10
2023-11-07T11:48:52.398Z,6.30
2023-11-07T11:51:40.256Z,2.57
2023-11-07T11:54:10.024Z,2.67
2023-11-07T11:56:52.029Z,4.10
2023-11-07T11:59:26.153Z,4.17
2023-11-07T12:02:01.513Z,4.60
2023-11-07T12:04:49.153Z,7.97
2023-11-07T12:07:16.532Z,6.60
2023-11-07T12:09:51.267Z,3.63
2023-11-07T12:12:20.243Z,3.27
2023-11-07T12:14:58.592Z,4.00
2023-11-07T12:17:42.139Z,5.20
2023-11-07T12:20:12.909Z,5.23
2023-11-07T12:22:43.546Z,4.13
2023-11-07T12:25:21.760Z,4.63
2023-11-07T12:35:39.308Z,3.97
2023-11-07T12:41:14.745Z,5.03
2023-11-07T12:43:45.655Z,4.97
2023-11-07T12:46:16.261Z,3.80
2023-11-07T12:48:46.142Z,3.37
2023-11-07T12:51:21.876Z,3.97
2023-11-07T12:53:50.566Z,4.30
2023-11-07T12:56:20.050Z,7.10
2023-11-07T12:58:48.156Z,3.03
2023-11-07T13:01:16.694Z,2.40
2023-11-07T13:03:44.309Z,4.60
2023-11-07T13:06:15.673Z,3.90
2023-11-07T13:08:45.382Z,3.50
2023-11-07T13:11:17.140Z,3.17
2023-11-07T13:13:48.520Z,1.87
2023-11-07T13:16:16.254Z,5.63
2023-11-07T13:18:47.993Z,4.03
2023-11-07T13:21:15.952Z,4.70
2023-11-07T13:23:43.164Z,3.53
2023-11-07T13:26:10.236Z,2.07
2023-11-07T13:28:38.317Z,3.23
2023-11-07T13:31:09.205Z,2.73
2023-11-07T13:33:36.796Z,3.40
2023-11-07T13:36:07.417Z,3.33
